Time;durP1;ratioP1;P1;durP2;ratioP2;P2;SDS_P1;SDS_P2;PMS_P1;PMS_P2;Temp;Humidity;BMP_temperature;BMP_pressure;BME280_temperature;BME280_humidity;BME280_pressure;Samples;Min_cycle;Max_cycle;Signal;HPM_P1;HPM_P2
2021/01/09 00:00:21;;;;;;;1.10;1.10;;;;;;;;;;5031336;28;20261;-49
2021/01/09 00:02:47;;;;;;;1.38;1.20;;;;;;;;;;5020393;28;20231;-49
2021/01/09 00:05:13;;;;;;;1.23;1.13;;;;;;;;;;5025746;28;20263;-48
2021/01/09 00:07:39;;;;;;;2.35;1.13;;;;;;;;;;5017236;28;20180;-48
2021/01/09 00:10:06;;;;;;;1.20;1.10;;;;;;;;;;5015010;28;20175;-49
2021/01/09 00:12:36;;;;;;;1.00;0.90;;;;;;;;;;5024899;28;20187;-48
2021/01/09 00:15:06;;;;;;;1.23;1.13;;;;;;;;;;5034542;28;20180;-48
2021/01/09 00:17:32;;;;;;;1.00;0.90;;;;;;;;;;5027696;28;20601;-48
2021/01/09 00:19:59;;;;;;;1.20;1.10;;;;;;;;;;5027654;28;20206;-49
2021/01/09 00:22:25;;;;;;;1.23;1.05;;;;;;;;;;5033781;28;20208;-49
2021/01/09 00:24:51;;;;;;;1.15;1.05;;;;;;;;;;5026684;28;20195;-48
2021/01/09 00:27:17;;;;;;;1.95;1.13;;;;;;;;;;5030719;28;20180;-48
2021/01/09 00:29:43;;;;;;;1.83;1.20;;;;;;;;;;5020337;28;20200;-49
2021/01/09 00:32:09;;;;;;;0.95;0.95;;;;;;;;;;5015940;28;20467;-49
2021/01/09 00:34:35;;;;;;;1.20;1.10;;;;;;;;;;5029520;28;20191;-49
2021/01/09 00:37:01;;;;;;;1.25;0.90;;;;;;;;;;5031860;28;20218;-48
2021/01/09 00:39:30;;;;;;;1.00;1.00;;;;;;;;;;5026637;28;20232;-49
2021/01/09 00:41:59;;;;;;;1.75;1.17;;;;;;;;;;5016522;28;20180;-49
2021/01/09 00:44:25;;;;;;;2.22;1.00;;;;;;;;;;5022922;28;20568;-49
2021/01/09 00:46:54;;;;;;;1.27;1.02;;;;;;;;;;5029693;28;20207;-47
2021/01/09 00:49:20;;;;;;;1.65;1.20;;;;;;;;;;5035585;28;20237;-48
2021/01/09 00:51:47;;;;;;;1.58;1.15;;;;;;;;;;5036383;28;20184;-49
2021/01/09 00:54:13;;;;;;;1.20;0.93;;;;;;;;;;5023700;28;20195;-49
2021/01/09 00:56:39;;;;;;;2.35;1.20;;;;;;;;;;5019420;28;20456;-48
2021/01/09 00:59:05;;;;;;;1.30;1.20;;;;;;;;;;5018429;28;20254;-49
2021/01/09 01:01:31;;;;;;;1.50;1.10;;;;;;;;;;5019662;28;20180;-49
2021/01/09 01:03:57;;;;;;;1.30;1.20;;;;;;;;;;5028020;28;20440;-47
2021/01/09 01:06:23;;;;;;;2.90;1.20;;;;;;;;;;5018125;28;20224;-48
2021/01/09 01:08:50;;;;;;;1.55;1.20;;;;;;;;;;5033967;28;20251;-49
2021/01/09 01:11:23;;;;;;;1.13;1.02;;;;;;;;;;5036939;28;20253;-49
2021/01/09 01:13:49;;;;;;;1.55;1.20;;;;;;;;;;5023656;28;20184;-48
2021/01/09 01:16:15;;;;;;;1.25;1.10;;;;;;;;;;5028746;28;20194;-48
2021/01/09 01:18:41;;;;;;;1.75;1.02;;;;;;;;;;5018359;28;20218;-49
2021/01/09 01:21:07;;;;;;;1.50;1.00;;;;;;;;;;5017905;28;20240;-49
2021/01/09 01:23:33;;;;;;;1.00;0.90;;;;;;;;;;5027192;28;20209;-47
2021/01/09 01:25:59;;;;;;;1.05;0.90;;;;;;;;;;5022522;28;20222;-49
2021/01/09 01:28:24;;;;;;;1.20;1.10;;;;;;;;;;5031331;28;20590;-49
2021/01/09 01:30:50;;;;;;;1.30;1.20;;;;;;;;;;5020485;28;20469;-48
2021/01/09 01:33:16;;;;;;;1.30;1.20;;;;;;;;;;5018141;28;20259;-48
2021/01/09 01:35:42;;;;;;;1.10;1.02;;;;;;;;;;5022118;28;20186;-49
2021/01/09 01:38:08;;;;;;;1.10;1.00;;;;;;;;;;5030825;28;20183;-48
2021/01/09 01:40:34;;;;;;;2.05;1.00;;;;;;;;;;5022564;28;20211;-49
2021/01/09 01:43:00;;;;;;;1.52;1.08;;;;;;;;;;5029952;28;20259;-49
2021/01/09 01:45:26;;;;;;;1.30;1.20;;;;;;;;;;5017216;28;20173;-48
2021/01/09 01:47:53;;;;;;;0.90;0.90;;;;;;;;;;5026213;28;20621;-48
2021/01/09 01:50:19;;;;;;;1.13;1.02;;;;;;;;;;5036179;28;20841;-48
2021/01/09 01:52:45;;;;;;;1.20;1.05;;;;;;;;;;5026484;28;20556;-48
2021/01/09 01:55:11;;;;;;;2.28;1.10;;;;;;;;;;5035519;28;20625;-48
2021/01/09 01:57:37;;;;;;;0.90;0.90;;;;;;;;;;5029664;28;20203;-48
2021/01/09 02:00:05;;;;;;;1.65;1.00;;;;;;;;;;5025567;28;20212;-48
2021/01/09 02:02:31;;;;;;;1.95;1.10;;;;;;;;;;5029988;28;20180;-48
2021/01/09 02:04:59;;;;;;;1.08;0.98;;;;;;;;;;5032863;28;20190;-48
2021/01/09 02:07:27;;;;;;;0.98;0.95;;;;;;;;;;5027773;28;20187;-48
2021/01/09 02:09:56;;;;;;;1.08;1.00;;;;;;;;;;5026993;28;20180;-49
2021/01/09 02:12:30;;;;;;;0.90;0.90;;;;;;;;;;5020693;28;20181;-49
2021/01/09 02:14:57;;;;;;;1.00;0.88;;;;;;;;;;5033440;28;20558;-47
2021/01/09 02:17:24;;;;;;;1.00;1.00;;;;;;;;;;5024654;28;20184;-48
2021/01/09 02:19:50;;;;;;;1.00;1.00;;;;;;;;;;5035737;28;20218;-47
2021/01/09 02:22:17;;;;;;;0.82;0.82;;;;;;;;;;5029030;28;20204;-48
2021/01/09 02:24:44;;;;;;;0.80;0.80;;;;;;;;;;5021405;28;20173;-48
2021/01/09 02:27:10;;;;;;;0.88;0.85;;;;;;;;;;5022598;28;20186;-48
2021/01/09 02:29:40;;;;;;;0.80;0.80;;;;;;;;;;5029881;28;20187;-48
2021/01/09 02:32:08;;;;;;;1.00;1.00;;;;;;;;;;5034216;28;20184;-48
2021/01/09 02:34:41;;;;;;;0.95;0.90;;;;;;;;;;5029616;28;20263;-49
2021/01/09 02:37:08;;;;;;;0.70;0.70;;;;;;;;;;5026660;28;20180;-49
2021/01/09 02:39:34;;;;;;;0.90;0.90;;;;;;;;;;5017674;28;20208;-48
2021/01/09 02:42:01;;;;;;;1.00;1.00;;;;;;;;;;5016239;28;20196;-49
2021/01/09 02:44:27;;;;;;;0.80;0.80;;;;;;;;;;5026907;28;20263;-49
2021/01/09 02:46:52;;;;;;;0.80;0.80;;;;;;;;;;5034407;28;20499;-49
2021/01/09 02:49:18;;;;;;;1.08;0.95;;;;;;;;;;5032716;28;20267;-49
2021/01/09 02:51:44;;;;;;;1.13;1.02;;;;;;;;;;5032714;28;20187;-48
2021/01/09 02:54:10;;;;;;;1.02;1.00;;;;;;;;;;5017189;28;20172;-48
2021/01/09 02:56:36;;;;;;;0.80;0.80;;;;;;;;;;5015990;28;20527;-48
2021/01/09 02:59:02;;;;;;;1.27;1.00;;;;;;;;;;5029478;28;20184;-49
2021/01/09 03:01:29;;;;;;;0.98;0.95;;;;;;;;;;5026049;28;20231;-47
2021/01/09 03:03:56;;;;;;;2.03;0.93;;;;;;;;;;5017891;28;20227;-49
2021/01/09 03:06:21;;;;;;;1.27;0.95;;;;;;;;;;5020277;28;20181;-48
2021/01/09 03:08:47;;;;;;;0.80;0.80;;;;;;;;;;5015962;28;20576;-49
2021/01/09 03:11:15;;;;;;;0.85;0.85;;;;;;;;;;5016984;28;20222;-49
2021/01/09 03:13:41;;;;;;;1.08;0.85;;;;;;;;;;5018563;28;20275;-49
2021/01/09 03:16:07;;;;;;;0.80;0.80;;;;;;;;;;5016333;28;20176;-48
2021/01/09 03:18:33;;;;;;;1.05;0.90;;;;;;;;;;5033643;28;20195;-48
2021/01/09 03:20:59;;;;;;;1.00;0.95;;;;;;;;;;5034751;28;20195;-48
2021/01/09 03:23:25;;;;;;;0.90;0.90;;;;;;;;;;5028988;28;20227;-48
2021/01/09 03:25:51;;;;;;;0.80;0.80;;;;;;;;;;5027063;28;20283;-49
2021/01/09 03:28:17;;;;;;;1.15;1.05;;;;;;;;;;5029194;28;20617;-47
2021/01/09 03:30:43;;;;;;;0.90;0.90;;;;;;;;;;5020436;28;20183;-48
2021/01/09 03:33:09;;;;;;;0.80;0.80;;;;;;;;;;5026888;28;20180;-49
2021/01/09 03:35:35;;;;;;;0.80;0.80;;;;;;;;;;5024585;28;20187;-48
2021/01/09 03:40:24;;;;;;;0.70;0.70;;;;;;;;;;5112222;27;20566;-47
2021/01/09 03:42:50;;;;;;;1.17;1.08;;;;;;;;;;5112007;28;20174;-47
2021/01/09 03:45:16;;;;;;;0.90;0.90;;;;;;;;;;5112396;28;20604;-46
2021/01/09 03:47:42;;;;;;;1.08;0.90;;;;;;;;;;5112262;28;20181;-48
2021/01/09 03:50:08;;;;;;;0.80;0.80;;;;;;;;;;5111875;28;20576;-48
2021/01/09 03:52:34;;;;;;;1.05;1.00;;;;;;;;;;5111996;28;20173;-48
2021/01/09 03:55:00;;;;;;;0.80;0.80;;;;;;;;;;5111824;28;20566;-48
2021/01/09 03:57:26;;;;;;;0.90;0.90;;;;;;;;;;5111407;28;20173;-48
2021/01/09 03:59:52;;;;;;;0.93;0.93;;;;;;;;;;5112485;28;20506;-47
2021/01/09 04:02:18;;;;;;;0.90;0.90;;;;;;;;;;5111622;28;20204;-47
2021/01/09 04:04:44;;;;;;;0.80;0.80;;;;;;;;;;5111644;28;20450;-48
2021/01/09 04:07:10;;;;;;;1.00;1.00;;;;;;;;;;5112063;28;20170;-47
2021/01/09 04:09:36;;;;;;;1.25;1.00;;;;;;;;;;5111925;28;20249;-47
2021/01/09 04:12:02;;;;;;;0.90;0.90;;;;;;;;;;5111999;28;20184;-48
2021/01/09 04:14:28;;;;;;;0.70;0.70;;;;;;;;;;5111175;28;20177;-47
2021/01/09 04:16:54;;;;;;;0.80;0.80;;;;;;;;;;5111768;28;20177;-48
2021/01/09 04:19:20;;;;;;;0.82;0.82;;;;;;;;;;5110824;28;20200;-47
2021/01/09 04:21:47;;;;;;;0.80;0.80;;;;;;;;;;5111324;28;20246;-46
2021/01/09 04:24:13;;;;;;;0.75;0.75;;;;;;;;;;5110162;28;20173;-47
2021/01/09 04:26:39;;;;;;;1.00;1.00;;;;;;;;;;5111328;28;20180;-47
2021/01/09 04:29:05;;;;;;;0.95;0.95;;;;;;;;;;5111476;28;20177;-48
2021/01/09 04:31:31;;;;;;;0.80;0.80;;;;;;;;;;5111510;28;20180;-47
2021/01/09 04:33:57;;;;;;;0.90;0.90;;;;;;;;;;5110964;28;20294;-48
2021/01/09 04:36:23;;;;;;;1.73;0.90;;;;;;;;;;5110479;28;20259;-47
2021/01/09 04:38:49;;;;;;;0.90;0.90;;;;;;;;;;5102691;28;20241;-48
2021/01/09 04:41:17;;;;;;;1.00;1.00;;;;;;;;;;5089982;28;20170;-49
2021/01/09 04:43:43;;;;;;;0.80;0.80;;;;;;;;;;5088562;28;20281;-48
2021/01/09 04:46:10;;;;;;;1.00;1.00;;;;;;;;;;5090631;28;20258;-49
2021/01/09 04:48:36;;;;;;;0.80;0.80;;;;;;;;;;5089663;28;20508;-47
2021/01/09 04:51:02;;;;;;;1.08;0.90;;;;;;;;;;5080953;28;20202;-49
2021/01/09 04:53:28;;;;;;;1.02;1.02;;;;;;;;;;5074246;28;20183;-47
2021/01/09 04:55:57;;;;;;;0.80;0.80;;;;;;;;;;5076539;28;20166;-47
2021/01/09 04:58:23;;;;;;;0.90;0.90;;;;;;;;;;5076173;28;20622;-48
2021/01/09 05:00:54;;;;;;;0.90;0.90;;;;;;;;;;5076411;28;20177;-48
2021/01/09 05:03:21;;;;;;;0.90;0.90;;;;;;;;;;5075618;28;20178;-47
2021/01/09 05:05:48;;;;;;;0.90;0.90;;;;;;;;;;5076183;28;20512;-48
2021/01/09 05:08:14;;;;;;;1.00;1.00;;;;;;;;;;5075705;28;20202;-48
2021/01/09 05:10:40;;;;;;;0.80;0.80;;;;;;;;;;5075622;28;20178;-47
2021/01/09 05:13:06;;;;;;;0.77;0.77;;;;;;;;;;5075319;28;20178;-48
2021/01/09 05:15:36;;;;;;;1.52;1.10;;;;;;;;;;5076356;28;20232;-48
2021/01/09 05:18:02;;;;;;;0.88;0.88;;;;;;;;;;5075813;28;20173;-47
2021/01/09 05:20:28;;;;;;;1.17;1.08;;;;;;;;;;5076331;28;20167;-49
2021/01/09 05:22:54;;;;;;;0.80;0.80;;;;;;;;;;5074542;28;20193;-48
2021/01/09 05:25:24;;;;;;;0.80;0.80;;;;;;;;;;5060804;28;20183;-48
2021/01/09 05:27:52;;;;;;;1.27;1.17;;;;;;;;;;5068549;28;20435;-47
2021/01/09 05:30:18;;;;;;;0.70;0.70;;;;;;;;;;5076795;28;20190;-49
2021/01/09 05:32:44;;;;;;;1.00;1.00;;;;;;;;;;5074722;28;20656;-48
2021/01/09 05:35:14;;;;;;;0.90;0.90;;;;;;;;;;5075290;28;20614;-47
2021/01/09 05:37:40;;;;;;;0.80;0.80;;;;;;;;;;5074834;28;20472;-49
2021/01/09 05:40:06;;;;;;;1.10;1.10;;;;;;;;;;5076248;28;20217;-48
2021/01/09 05:42:34;;;;;;;0.90;0.90;;;;;;;;;;5073960;28;20171;-47
2021/01/09 05:45:01;;;;;;;1.10;1.08;;;;;;;;;;5072779;28;20175;-48
2021/01/09 05:47:27;;;;;;;0.88;0.88;;;;;;;;;;5064044;28;20244;-47
2021/01/09 05:49:56;;;;;;;0.85;0.85;;;;;;;;;;5074970;28;20224;-48
2021/01/09 05:52:25;;;;;;;0.95;0.95;;;;;;;;;;5066685;28;20601;-48
2021/01/09 05:54:55;;;;;;;0.90;0.90;;;;;;;;;;5064851;28;20516;-47
2021/01/09 05:57:26;;;;;;;0.80;0.80;;;;;;;;;;5075899;28;20179;-48
2021/01/09 05:59:53;;;;;;;0.95;0.95;;;;;;;;;;5075191;28;20515;-48
2021/01/09 06:02:19;;;;;;;0.90;0.90;;;;;;;;;;5074354;28;20578;-48
2021/01/09 06:04:46;;;;;;;1.42;1.00;;;;;;;;;;5074599;28;20182;-47
2021/01/09 06:07:16;;;;;;;1.00;1.00;;;;;;;;;;5075246;28;20258;-49
2021/01/09 06:09:45;;;;;;;0.70;0.70;;;;;;;;;;5057344;28;20198;-47
2021/01/09 06:12:13;;;;;;;0.85;0.85;;;;;;;;;;5057410;28;20190;-48
2021/01/09 06:14:41;;;;;;;0.90;0.90;;;;;;;;;;5072926;28;20213;-48
2021/01/09 06:17:07;;;;;;;0.90;0.90;;;;;;;;;;5075834;28;20220;-49
2021/01/09 06:19:35;;;;;;;1.15;0.88;;;;;;;;;;5070035;28;20211;-48
2021/01/09 06:22:02;;;;;;;0.90;0.90;;;;;;;;;;5064481;28;20192;-47
2021/01/09 06:24:28;;;;;;;0.90;0.90;;;;;;;;;;5074563;28;20269;-48
2021/01/09 06:26:54;;;;;;;1.08;1.05;;;;;;;;;;5075637;28;20228;-48
2021/01/09 06:29:24;;;;;;;1.52;0.88;;;;;;;;;;5060209;28;20187;-48
2021/01/09 06:31:50;;;;;;;1.17;1.05;;;;;;;;;;5062574;28;20178;-48
2021/01/09 06:34:18;;;;;;;1.60;0.85;;;;;;;;;;5074642;28;20589;-48
2021/01/09 06:36:46;;;;;;;1.17;1.08;;;;;;;;;;5073856;28;20197;-47
2021/01/09 06:39:12;;;;;;;1.25;1.15;;;;;;;;;;5063427;28;20846;-49
2021/01/09 06:41:38;;;;;;;4.63;1.55;;;;;;;;;;5060844;28;20163;-47
2021/01/09 06:44:07;;;;;;;3.92;1.90;;;;;;;;;;5063582;28;20273;-47
2021/01/09 06:46:34;;;;;;;4.13;1.88;;;;;;;;;;5075333;28;20174;-48
2021/01/09 06:49:00;;;;;;;6.97;2.63;;;;;;;;;;5073296;28;20209;-48
2021/01/09 06:51:35;;;;;;;8.68;2.65;;;;;;;;;;5073830;28;20202;-48
2021/01/09 06:54:20;;;;;;;12.32;2.90;;;;;;;;;;5055201;28;20574;-49
2021/01/09 06:56:50;;;;;;;7.60;2.20;;;;;;;;;;5054138;28;20229;-47
2021/01/09 06:59:28;;;;;;;5.25;2.20;;;;;;;;;;5057350;28;20581;-48
2021/01/09 07:02:09;;;;;;;7.22;2.28;;;;;;;;;;5061800;28;20178;-48
2021/01/09 07:05:10;;;;;;;6.85;2.45;;;;;;;;;;5059549;28;20199;-48
2021/01/09 07:07:40;;;;;;;7.40;2.25;;;;;;;;;;5031741;28;20226;-48
2021/01/09 07:10:07;;;;;;;5.40;2.50;;;;;;;;;;5074607;28;20193;-49
2021/01/09 07:12:33;;;;;;;6.80;2.30;;;;;;;;;;5069390;28;20205;-48
2021/01/09 07:15:10;;;;;;;5.10;2.40;;;;;;;;;;5056306;28;20178;-48
2021/01/09 07:17:40;;;;;;;4.95;2.42;;;;;;;;;;5070689;28;20224;-48
2021/01/09 07:20:07;;;;;;;7.82;2.55;;;;;;;;;;5054422;28;20203;-52
2021/01/09 07:22:34;;;;;;;6.47;2.45;;;;;;;;;;5065736;28;20166;-49
2021/01/09 07:25:00;;;;;;;5.45;2.20;;;;;;;;;;5074099;28;20185;-47
2021/01/09 07:27:33;;;;;;;5.47;2.13;;;;;;;;;;5074145;28;20209;-48
2021/01/09 07:30:06;;;;;;;5.05;2.40;;;;;;;;;;5074483;28;20254;-48
2021/01/09 07:32:41;;;;;;;8.68;2.17;;;;;;;;;;5074445;28;20210;-47
2021/01/09 07:35:07;;;;;;;3.60;2.20;;;;;;;;;;5072845;28;20269;-48
2021/01/09 07:37:43;;;;;;;7.40;2.50;;;;;;;;;;5068501;28;20848;-48
2021/01/09 07:40:17;;;;;;;5.57;2.30;;;;;;;;;;5073436;28;20259;-49
2021/01/09 07:42:43;;;;;;;4.97;2.17;;;;;;;;;;5073086;28;20170;-48
2021/01/09 07:45:10;;;;;;;9.25;2.33;;;;;;;;;;5071979;28;20175;-48
2021/01/09 07:47:40;;;;;;;5.28;1.83;;;;;;;;;;5063738;28;20169;-48
2021/01/09 07:50:07;;;;;;;6.60;2.17;;;;;;;;;;5060835;28;20186;-49
2021/01/09 07:52:34;;;;;;;7.65;2.10;;;;;;;;;;5073999;28;20179;-47
2021/01/09 07:55:00;;;;;;;4.63;2.00;;;;;;;;;;5073490;28;20163;-49
2021/01/09 07:57:26;;;;;;;5.38;2.10;;;;;;;;;;5063953;28;20584;-47
2021/01/09 07:59:55;;;;;;;8.60;2.15;;;;;;;;;;5070009;28;20841;-47
2021/01/09 08:02:24;;;;;;;8.00;2.55;;;;;;;;;;5074132;28;20183;-48
2021/01/09 08:04:50;;;;;;;3.17;2.00;;;;;;;;;;5074068;28;20166;-49
2021/01/09 08:07:16;;;;;;;4.82;1.50;;;;;;;;;;5056544;28;20193;-47
2021/01/09 08:09:42;;;;;;;3.38;1.77;;;;;;;;;;5074483;28;20190;-48
2021/01/09 08:12:08;;;;;;;8.65;2.10;;;;;;;;;;5074206;28;20324;-48
2021/01/09 08:14:35;;;;;;;3.83;1.60;;;;;;;;;;5073464;28;20446;-47
2021/01/09 08:17:10;;;;;;;4.70;2.33;;;;;;;;;;5073913;28;20554;-48
2021/01/09 08:19:36;;;;;;;3.50;1.80;;;;;;;;;;5073118;28;20277;-48
2021/01/09 08:22:06;;;;;;;7.70;1.80;;;;;;;;;;5073930;28;20253;-48
2021/01/09 08:24:32;;;;;;;6.03;2.03;;;;;;;;;;5073268;28;20561;-47
2021/01/09 08:26:58;;;;;;;4.40;1.73;;;;;;;;;;5076309;28;20190;-48
2021/01/09 08:29:25;;;;;;;3.63;1.70;;;;;;;;;;5077676;28;20181;-49
2021/01/09 08:31:51;;;;;;;3.95;2.35;;;;;;;;;;5077932;28;20167;-48
2021/01/09 08:34:21;;;;;;;5.38;2.00;;;;;;;;;;5077137;28;20568;-48
2021/01/09 08:36:54;;;;;;;3.92;1.42;;;;;;;;;;5072276;28;20186;-48
2021/01/09 08:39:20;;;;;;;4.75;1.60;;;;;;;;;;5077355;28;20492;-48
2021/01/09 08:41:46;;;;;;;2.45;1.67;;;;;;;;;;5077113;28;20175;-49
2021/01/09 08:44:13;;;;;;;6.10;1.77;;;;;;;;;;5075718;28;20426;-48
2021/01/09 08:46:39;;;;;;;5.18;2.10;;;;;;;;;;5064481;28;20175;-49
2021/01/09 08:49:07;;;;;;;5.40;2.28;;;;;;;;;;5074087;28;20182;-48
2021/01/09 08:51:33;;;;;;;5.97;1.83;;;;;;;;;;5076614;28;20281;-48
2021/01/09 08:54:12;;;;;;;4.25;2.13;;;;;;;;;;5077259;28;20170;-49
2021/01/09 08:56:38;;;;;;;7.25;2.25;;;;;;;;;;5065563;28;20175;-48
2021/01/09 08:59:10;;;;;;;4.05;2.00;;;;;;;;;;5072846;28;20347;-48
2021/01/09 09:01:43;;;;;;;3.80;2.00;;;;;;;;;;5076864;28;20182;-49
2021/01/09 09:04:09;;;;;;;4.72;1.75;;;;;;;;;;5076808;28;20182;-48
2021/01/09 09:06:36;;;;;;;4.57;1.70;;;;;;;;;;5075812;28;20185;-49
2021/01/09 09:09:03;;;;;;;6.93;2.15;;;;;;;;;;5075494;28;20187;-49
2021/01/09 09:11:29;;;;;;;2.03;1.70;;;;;;;;;;5076786;28;20202;-47
2021/01/09 09:14:04;;;;;;;2.55;1.40;;;;;;;;;;5076512;28;20202;-47
2021/01/09 09:16:30;;;;;;;4.47;1.80;;;;;;;;;;5073869;28;20185;-49
2021/01/09 09:18:56;;;;;;;2.67;1.58;;;;;;;;;;5076222;28;20198;-49
2021/01/09 09:21:22;;;;;;;24.92;5.13;;;;;;;;;;5073022;28;20178;-48
2021/01/09 09:23:52;;;;;;;153.43;29.25;;;;;;;;;;5075344;28;20201;-49
2021/01/09 09:26:18;;;;;;;138.38;29.27;;;;;;;;;;5074855;28;20175;-48
2021/01/09 09:28:47;;;;;;;135.18;29.40;;;;;;;;;;5076831;28;20182;-49
2021/01/09 09:31:17;;;;;;;127.82;25.40;;;;;;;;;;5076689;28;20196;-48
2021/01/09 09:33:54;;;;;;;96.38;22.55;;;;;;;;;;5075984;28;20190;-48
2021/01/09 09:36:20;;;;;;;84.90;21.88;;;;;;;;;;5068357;28;20183;-48
2021/01/09 09:38:46;;;;;;;77.75;19.88;;;;;;;;;;5073653;28;20466;-48
2021/01/09 09:41:12;;;;;;;85.32;19.83;;;;;;;;;;5074795;28;20186;-49
2021/01/09 09:43:38;;;;;;;88.68;18.95;;;;;;;;;;5066976;28;20211;-47
2021/01/09 09:46:06;;;;;;;74.28;18.45;;;;;;;;;;5072570;28;20202;-47
2021/01/09 09:48:33;;;;;;;67.85;17.08;;;;;;;;;;5077216;28;20221;-49
2021/01/09 09:51:03;;;;;;;71.18;16.60;;;;;;;;;;5074949;28;20179;-47
2021/01/09 09:53:29;;;;;;;58.65;15.60;;;;;;;;;;5071499;28;20190;-48
2021/01/09 09:56:17;;;;;;;56.45;15.43;;;;;;;;;;5075870;28;20224;-48
2021/01/09 09:58:43;;;;;;;54.00;16.00;;;;;;;;;;5068777;28;20206;-47
2021/01/09 10:01:16;;;;;;;62.42;14.95;;;;;;;;;;5062701;28;20185;-49
2021/01/09 10:03:42;;;;;;;52.67;14.48;;;;;;;;;;5083970;28;20180;-48
2021/01/09 10:06:09;;;;;;;44.65;14.55;;;;;;;;;;5075336;28;20177;-47
2021/01/09 10:08:35;;;;;;;50.67;13.98;;;;;;;;;;5075093;28;20186;-48
2021/01/09 10:11:02;;;;;;;42.75;13.57;;;;;;;;;;5075592;28;20581;-49
2021/01/09 10:13:28;;;;;;;55.10;14.20;;;;;;;;;;5075468;28;20198;-47
2021/01/09 10:15:58;;;;;;;47.80;14.30;;;;;;;;;;5075516;28;20223;-48
2021/01/09 10:18:24;;;;;;;43.22;12.60;;;;;;;;;;5074431;28;20193;-47
2021/01/09 10:20:50;;;;;;;43.70;12.98;;;;;;;;;;5075940;28;20171;-49
2021/01/09 10:23:16;;;;;;;39.13;10.75;;;;;;;;;;5075136;28;20214;-49
2021/01/09 10:25:43;;;;;;;40.38;12.15;;;;;;;;;;5074506;28;20174;-48
2021/01/09 10:28:09;;;;;;;39.90;11.00;;;;;;;;;;5073885;28;20174;-49
2021/01/09 10:30:35;;;;;;;33.45;11.73;;;;;;;;;;5071371;28;20175;-48
2021/01/09 10:33:02;;;;;;;32.22;10.65;;;;;;;;;;5074778;28;20561;-48
2021/01/09 10:35:28;;;;;;;32.65;10.85;;;;;;;;;;5074128;28;20197;-48
2021/01/09 10:37:54;;;;;;;30.70;10.38;;;;;;;;;;5075451;28;20201;-48
2021/01/09 10:40:20;;;;;;;31.75;10.07;;;;;;;;;;5075457;28;20299;-48
2021/01/09 10:42:46;;;;;;;28.65;9.77;;;;;;;;;;5075139;28;20613;-48
2021/01/09 10:45:13;;;;;;;29.67;9.20;;;;;;;;;;5073376;28;20179;-54
2021/01/09 10:47:39;;;;;;;25.10;9.25;;;;;;;;;;5073097;28;20239;-47
2021/01/09 10:50:05;;;;;;;26.92;9.32;;;;;;;;;;5072443;28;20281;-48
2021/01/09 10:52:31;;;;;;;26.60;9.40;;;;;;;;;;5074251;28;20179;-48
2021/01/09 10:54:57;;;;;;;29.55;9.40;;;;;;;;;;5064008;28;20194;-48
2021/01/09 10:57:23;;;;;;;23.42;8.90;;;;;;;;;;5074306;28;20558;-48
2021/01/09 10:59:49;;;;;;;25.58;9.10;;;;;;;;;;5074272;28;20210;-49
2021/01/09 11:02:15;;;;;;;23.50;8.13;;;;;;;;;;5074098;28;20175;-47
2021/01/09 11:04:41;;;;;;;25.38;8.32;;;;;;;;;;5063251;28;20257;-49
2021/01/09 11:07:07;;;;;;;20.95;7.35;;;;;;;;;;5073226;28;20445;-48
2021/01/09 11:09:33;;;;;;;21.75;7.82;;;;;;;;;;5071515;28;20178;-48
2021/01/09 11:11:59;;;;;;;18.27;7.63;;;;;;;;;;5074683;28;20267;-48
2021/01/09 11:14:26;;;;;;;24.40;8.02;;;;;;;;;;5074295;28;20190;-47
2021/01/09 11:16:56;;;;;;;22.33;7.15;;;;;;;;;;5058034;28;20179;-47
2021/01/09 11:19:22;;;;;;;18.85;7.13;;;;;;;;;;5068137;28;20331;-49
2021/01/09 11:21:48;;;;;;;18.15;7.10;;;;;;;;;;5069962;28;20273;-47
2021/01/09 11:24:14;;;;;;;14.77;6.88;;;;;;;;;;5071712;28;20179;-48
2021/01/09 11:26:40;;;;;;;17.20;7.32;;;;;;;;;;5069495;28;20269;-49
2021/01/09 11:29:06;;;;;;;15.80;5.90;;;;;;;;;;5072882;28;20186;-48
2021/01/09 11:31:32;;;;;;;17.75;6.53;;;;;;;;;;5074415;28;20251;-48
2021/01/09 11:33:58;;;;;;;19.05;6.82;;;;;;;;;;5071111;28;20593;-47
2021/01/09 11:36:24;;;;;;;16.75;6.43;;;;;;;;;;5073084;28;20185;-49
2021/01/09 11:38:50;;;;;;;12.35;6.78;;;;;;;;;;5073978;28;20210;-49
2021/01/09 11:41:16;;;;;;;12.27;5.47;;;;;;;;;;5064705;28;20201;-49
2021/01/09 11:43:42;;;;;;;14.93;6.47;;;;;;;;;;5071184;28;20207;-49
2021/01/09 11:46:09;;;;;;;15.00;5.57;;;;;;;;;;5073639;28;20500;-47
2021/01/09 11:48:35;;;;;;;17.13;6.05;;;;;;;;;;5073079;28;20186;-48
2021/01/09 11:51:02;;;;;;;12.50;5.05;;;;;;;;;;5073944;28;20257;-48
2021/01/09 11:53:28;;;;;;;14.95;5.53;;;;;;;;;;5068484;28;20193;-47
2021/01/09 11:55:54;;;;;;;13.68;5.43;;;;;;;;;;5071053;28;20167;-49
2021/01/09 11:58:20;;;;;;;11.75;5.35;;;;;;;;;;5072874;28;20186;-48
2021/01/09 12:00:46;;;;;;;10.73;5.45;;;;;;;;;;5075835;28;20178;-49
2021/01/09 12:03:12;;;;;;;17.88;5.88;;;;;;;;;;5078047;28;20210;-48
2021/01/09 12:05:38;;;;;;;14.82;5.78;;;;;;;;;;5071352;28;20569;-48
2021/01/09 12:08:05;;;;;;;17.88;7.03;;;;;;;;;;5078155;28;20566;-49
2021/01/09 12:10:31;;;;;;;16.55;7.57;;;;;;;;;;5058550;28;20478;-47
2021/01/09 12:12:57;;;;;;;15.05;7.05;;;;;;;;;;5065847;28;20175;-49
2021/01/09 12:15:24;;;;;;;15.35;7.10;;;;;;;;;;5077177;28;20189;-48
2021/01/09 12:17:49;;;;;;;12.98;7.22;;;;;;;;;;5076304;28;20182;-49
2021/01/09 12:20:16;;;;;;;11.75;6.28;;;;;;;;;;5077333;28;20214;-47
2021/01/09 12:22:42;;;;;;;13.23;6.68;;;;;;;;;;5076303;28;20171;-48
2021/01/09 12:25:08;;;;;;;10.30;6.35;;;;;;;;;;5062726;28;20206;-48
2021/01/09 12:27:34;;;;;;;10.50;6.03;;;;;;;;;;5075535;28;20251;-49
2021/01/09 12:30:00;;;;;;;12.40;6.15;;;;;;;;;;5077745;28;20303;-48
2021/01/09 12:32:26;;;;;;;13.55;7.78;;;;;;;;;;5073237;28;20291;-48
2021/01/09 12:34:52;;;;;;;28.90;13.73;;;;;;;;;;5065725;28;20186;-48
2021/01/09 12:37:18;;;;;;;42.58;19.58;;;;;;;;;;5060117;28;20229;-48
2021/01/09 12:39:44;;;;;;;48.05;23.30;;;;;;;;;;5069983;28;20210;-48
2021/01/09 12:42:10;;;;;;;56.90;26.00;;;;;;;;;;5077001;28;20220;-49
2021/01/09 12:44:36;;;;;;;69.35;27.70;;;;;;;;;;5076968;28;20179;-48
2021/01/09 12:47:03;;;;;;;70.50;30.23;;;;;;;;;;5077287;28;20217;-47
2021/01/09 12:49:29;;;;;;;66.38;29.02;;;;;;;;;;5069543;28;20533;-48
2021/01/09 12:51:56;;;;;;;76.65;32.08;;;;;;;;;;5056976;28;20199;-47
2021/01/09 12:54:22;;;;;;;86.88;40.13;;;;;;;;;;5075293;28;20873;-49
2021/01/09 12:56:50;;;;;;;120.95;57.03;;;;;;;;;;5074633;28;20178;-48
2021/01/09 12:59:16;;;;;;;139.00;64.88;;;;;;;;;;5069126;28;20252;-48
2021/01/09 13:01:43;;;;;;;121.38;61.05;;;;;;;;;;5057513;28;20175;-48
2021/01/09 13:04:09;;;;;;;114.03;56.42;;;;;;;;;;5063861;28;20639;-48
2021/01/09 13:06:39;;;;;;;107.90;52.80;;;;;;;;;;5074242;28;20171;-48
2021/01/09 13:09:06;;;;;;;98.63;49.78;;;;;;;;;;5072983;28;20229;-48
2021/01/09 13:11:32;;;;;;;94.38;47.95;;;;;;;;;;5056617;28;20195;-48
2021/01/09 13:13:58;;;;;;;102.05;47.80;;;;;;;;;;5085238;28;20189;-49
2021/01/09 13:16:24;;;;;;;86.38;45.15;;;;;;;;;;5091129;28;20179;-47
2021/01/09 13:18:50;;;;;;;77.15;41.13;;;;;;;;;;5074190;28;20303;-48
2021/01/09 13:21:16;;;;;;;81.47;40.88;;;;;;;;;;5075893;28;20189;-49
2021/01/09 13:23:42;;;;;;;74.97;39.97;;;;;;;;;;5076508;28;20180;-47
2021/01/09 13:26:09;;;;;;;69.80;38.00;;;;;;;;;;5080927;28;20194;-48
2021/01/09 13:28:35;;;;;;;67.20;36.20;;;;;;;;;;5075577;28;20202;-48
2021/01/09 13:31:01;;;;;;;67.85;34.90;;;;;;;;;;5076594;28;20291;-49
2021/01/09 13:33:27;;;;;;;62.70;33.33;;;;;;;;;;5076203;28;20174;-49
2021/01/09 13:35:53;;;;;;;62.38;33.65;;;;;;;;;;5075938;28;20189;-47
2021/01/09 13:38:20;;;;;;;58.30;31.67;;;;;;;;;;5076279;28;20182;-48
2021/01/09 13:40:46;;;;;;;50.55;27.88;;;;;;;;;;5064304;28;20176;-48
2021/01/09 13:43:12;;;;;;;47.38;26.13;;;;;;;;;;5070711;28;20273;-48
2021/01/09 13:45:38;;;;;;;48.90;25.50;;;;;;;;;;5075505;28;20205;-48
2021/01/09 13:48:05;;;;;;;44.03;24.08;;;;;;;;;;5067348;28;20204;-48
2021/01/09 13:50:31;;;;;;;44.53;25.65;;;;;;;;;;5068511;28;20197;-47
2021/01/09 13:52:57;;;;;;;46.63;23.98;;;;;;;;;;5076112;28;20536;-49
2021/01/09 13:55:23;;;;;;;42.75;22.77;;;;;;;;;;5075793;28;20167;-48
2021/01/09 13:57:49;;;;;;;43.28;21.90;;;;;;;;;;5075950;28;20322;-48
2021/01/09 14:00:16;;;;;;;39.35;21.75;;;;;;;;;;5075231;28;20217;-47
2021/01/09 14:02:43;;;;;;;41.20;20.42;;;;;;;;;;5075853;28;20434;-48
2021/01/09 14:05:09;;;;;;;38.42;19.80;;;;;;;;;;5075672;28;20609;-48
2021/01/09 14:07:35;;;;;;;35.35;20.00;;;;;;;;;;5075436;28;20182;-48
2021/01/09 14:10:02;;;;;;;30.27;18.88;;;;;;;;;;5074295;28;20179;-48
2021/01/09 14:12:28;;;;;;;34.60;18.10;;;;;;;;;;5074660;28;20206;-47
2021/01/09 14:14:54;;;;;;;34.63;18.60;;;;;;;;;;5075498;28;20201;-47
2021/01/09 14:17:20;;;;;;;30.38;17.33;;;;;;;;;;5075665;28;20565;-49
2021/01/09 14:19:46;;;;;;;27.27;16.15;;;;;;;;;;5066262;28;20210;-49
2021/01/09 14:22:12;;;;;;;29.55;15.80;;;;;;;;;;5074020;28;20185;-47
2021/01/09 14:24:38;;;;;;;29.38;15.68;;;;;;;;;;5074232;28;20884;-49
2021/01/09 14:27:07;;;;;;;30.67;16.58;;;;;;;;;;5075177;28;20699;-48
2021/01/09 14:29:33;;;;;;;25.08;14.80;;;;;;;;;;5068858;28;20183;-48
2021/01/09 14:31:59;;;;;;;23.65;14.60;;;;;;;;;;5056748;28;20546;-48
2021/01/09 14:34:25;;;;;;;22.55;13.70;;;;;;;;;;5074013;28;20642;-48
2021/01/09 14:36:52;;;;;;;28.55;14.18;;;;;;;;;;5074705;28;20211;-49